UAL6032 KDEN-KSLC
Flight info
| Callsign | UAL6032 |
|---|---|
| Flight time | 1h 3m |
| Altitude | 34000 |
| Route | KDEN/17L N0437F340 ZIMMR3 CHNGY DCT EKR PITTT1 KSLC/16L |
| Aircraft | A320/M-SDE3FGHIRWY/LB1 |
Departure
| Time | 2026-05-07 02:57 |
|---|---|
| Airport | Denver International Airport (KDEN) |
Arrival
| Time | 2026-05-07 04:00 |
|---|---|
| Airport | Salt Lake City International Airport (KSLC) |
| Time | Latitude | Longitude | Altitude | Speed | Heading |
|---|---|---|---|---|---|
| 2026-05-07 02:32 | 39.85803 | -104.67628 | 5379 ft | 0 kts | 359° |
| 2026-05-07 02:43 | 39.85787 | -104.67628 | 5374 ft | 3 kts | 359° |
| 2026-05-07 02:43 | 39.85769 | -104.67627 | 5376 ft | 3 kts | 359° |
| 2026-05-07 02:43 | 39.85752 | -104.67627 | 5374 ft | 2 kts | 359° |
| 2026-05-07 02:44 | 39.85734 | -104.67627 | 5374 ft | 3 kts | 359° |
| 2026-05-07 02:44 | 39.85717 | -104.67626 | 5376 ft | 2 kts | 359° |
| 2026-05-07 02:44 | 39.85710 | -104.67626 | 5376 ft | 0 kts | 359° |
| 2026-05-07 02:48 | 39.85712 | -104.67626 | 5375 ft | 1 kts | 359° |
| 2026-05-07 02:48 | 39.85717 | -104.67626 | 5376 ft | 0 kts | 1° |
| 2026-05-07 02:49 | 39.85733 | -104.67586 | 5374 ft | 12 kts | 71° |
| 2026-05-07 02:49 | 39.85733 | -104.67442 | 5379 ft | 17 kts | 89° |
| 2026-05-07 02:49 | 39.85729 | -104.67284 | 5379 ft | 18 kts | 88° |
| 2026-05-07 02:50 | 39.85729 | -104.67116 | 5380 ft | 19 kts | 90° |
| 2026-05-07 02:50 | 39.85727 | -104.66943 | 5381 ft | 19 kts | 90° |
| 2026-05-07 02:50 | 39.85688 | -104.66821 | 5383 ft | 12 kts | 152° |
| 2026-05-07 02:50 | 39.85661 | -104.66742 | 5385 ft | 9 kts | 86° |
| 2026-05-07 02:51 | 39.85658 | -104.66627 | 5387 ft | 17 kts | 91° |
| 2026-05-07 02:51 | 39.85679 | -104.66479 | 5390 ft | 16 kts | 92° |
| 2026-05-07 02:51 | 39.85678 | -104.66347 | 5394 ft | 14 kts | 89° |
| 2026-05-07 02:51 | 39.85704 | -104.66242 | 5391 ft | 12 kts | 23° |
| 2026-05-07 02:52 | 39.85801 | -104.66235 | 5395 ft | 18 kts | 360° |
| 2026-05-07 02:52 | 39.85942 | -104.66231 | 5392 ft | 21 kts | 0° |
| 2026-05-07 02:52 | 39.86095 | -104.66230 | 5388 ft | 23 kts | 360° |
| 2026-05-07 02:52 | 39.86245 | -104.66231 | 5384 ft | 22 kts | 2° |
| 2026-05-07 02:53 | 39.86342 | -104.66228 | 5381 ft | 21 kts | 1° |
| 2026-05-07 02:53 | 39.86469 | -104.66225 | 5378 ft | 16 kts | 8° |
| 2026-05-07 02:53 | 39.86499 | -104.66105 | 5378 ft | 16 kts | 90° |
| 2026-05-07 02:53 | 39.86499 | -104.65960 | 5379 ft | 16 kts | 90° |
| 2026-05-07 02:54 | 39.86498 | -104.65805 | 5377 ft | 18 kts | 91° |
| 2026-05-07 02:54 | 39.86494 | -104.65630 | 5375 ft | 20 kts | 90° |
| 2026-05-07 02:54 | 39.86493 | -104.65454 | 5372 ft | 20 kts | 92° |
| 2026-05-07 02:54 | 39.86493 | -104.65267 | 5366 ft | 22 kts | 89° |
| 2026-05-07 02:55 | 39.86491 | -104.65082 | 5360 ft | 19 kts | 90° |
| 2026-05-07 02:55 | 39.86491 | -104.64914 | 5355 ft | 18 kts | 90° |
| 2026-05-07 02:55 | 39.86489 | -104.64727 | 5345 ft | 19 kts | 90° |
| 2026-05-07 02:55 | 39.86488 | -104.64537 | 5337 ft | 21 kts | 90° |
| 2026-05-07 02:56 | 39.86485 | -104.64345 | 5335 ft | 20 kts | 90° |
| 2026-05-07 02:56 | 39.86476 | -104.64161 | 5336 ft | 20 kts | 120° |
| 2026-05-07 02:56 | 39.86363 | -104.64133 | 5336 ft | 17 kts | 181° |
| 2026-05-07 02:56 | 39.86074 | -104.64137 | 5344 ft | 74 kts | 180° |
| 2026-05-07 02:57 | 39.85355 | -104.64145 | 5350 ft | 131 kts | 180° |
| 2026-05-07 02:57 | 39.84290 | -104.64156 | 5426 ft | 168 kts | 180° |
| 2026-05-07 02:57 | 39.83147 | -104.64151 | 6185 ft | 164 kts | 185° |
| 2026-05-07 02:57 | 39.82131 | -104.64768 | 6815 ft | 168 kts | 230° |
| 2026-05-07 02:58 | 39.81676 | -104.66174 | 7218 ft | 179 kts | 266° |
| 2026-05-07 02:58 | 39.82025 | -104.67814 | 7398 ft | 204 kts | 300° |
| 2026-05-07 02:58 | 39.82876 | -104.69433 | 7542 ft | 231 kts | 303° |
| 2026-05-07 02:58 | 39.83827 | -104.71239 | 7864 ft | 253 kts | 302° |
| 2026-05-07 02:59 | 39.84822 | -104.73231 | 8360 ft | 269 kts | 301° |
| 2026-05-07 02:59 | 39.85822 | -104.75315 | 9170 ft | 271 kts | 302° |
| 2026-05-07 02:59 | 39.86816 | -104.77398 | 9957 ft | 271 kts | 302° |
| 2026-05-07 02:59 | 39.87816 | -104.79495 | 10524 ft | 278 kts | 303° |
| 2026-05-07 03:00 | 39.88892 | -104.81714 | 10713 ft | 301 kts | 303° |
| 2026-05-07 03:00 | 39.90048 | -104.84054 | 11222 ft | 310 kts | 304° |
| 2026-05-07 03:00 | 39.91216 | -104.86427 | 11889 ft | 314 kts | 304° |
| 2026-05-07 03:00 | 39.92407 | -104.88850 | 12476 ft | 321 kts | 304° |
| 2026-05-07 03:01 | 39.93362 | -104.91474 | 13234 ft | 326 kts | 286° |
| 2026-05-07 03:01 | 39.93488 | -104.94452 | 13958 ft | 335 kts | 270° |
| 2026-05-07 03:01 | 39.93329 | -104.97482 | 14559 ft | 337 kts | 273° |
| 2026-05-07 03:01 | 39.93314 | -105.00551 | 15118 ft | 340 kts | 276° |
| 2026-05-07 03:02 | 39.93389 | -105.03636 | 15681 ft | 343 kts | 277° |
| 2026-05-07 03:02 | 39.93531 | -105.06765 | 16208 ft | 347 kts | 279° |
| 2026-05-07 03:02 | 39.93690 | -105.09926 | 16769 ft | 352 kts | 278° |
| 2026-05-07 03:02 | 39.93796 | -105.13125 | 17379 ft | 355 kts | 277° |
| 2026-05-07 03:03 | 39.93856 | -105.16369 | 17924 ft | 361 kts | 276° |
| 2026-05-07 03:03 | 39.93884 | -105.19660 | 18489 ft | 365 kts | 276° |
| 2026-05-07 03:03 | 39.93924 | -105.22976 | 19018 ft | 367 kts | 278° |
| 2026-05-07 03:03 | 39.94095 | -105.26301 | 19552 ft | 368 kts | 281° |
| 2026-05-07 03:04 | 39.94365 | -105.29626 | 20078 ft | 371 kts | 282° |
| 2026-05-07 03:04 | 39.94677 | -105.32976 | 20597 ft | 374 kts | 283° |
| 2026-05-07 03:04 | 39.94997 | -105.36352 | 21098 ft | 377 kts | 283° |
| 2026-05-07 03:04 | 39.95305 | -105.39760 | 21605 ft | 380 kts | 282° |
| 2026-05-07 03:05 | 39.95598 | -105.43200 | 22098 ft | 384 kts | 282° |
| 2026-05-07 03:05 | 39.95877 | -105.46682 | 22598 ft | 387 kts | 282° |
| 2026-05-07 03:05 | 39.96144 | -105.50141 | 23091 ft | 391 kts | 282° |
| 2026-05-07 03:05 | 39.96416 | -105.53681 | 23611 ft | 394 kts | 282° |
| 2026-05-07 03:06 | 39.96693 | -105.57260 | 24034 ft | 397 kts | 282° |
| 2026-05-07 03:06 | 39.96967 | -105.60854 | 24507 ft | 400 kts | 282° |
| 2026-05-07 03:06 | 39.97240 | -105.64473 | 24926 ft | 402 kts | 282° |
| 2026-05-07 03:06 | 39.97499 | -105.68116 | 25312 ft | 405 kts | 281° |
| 2026-05-07 03:07 | 39.97710 | -105.71787 | 25736 ft | 408 kts | 280° |
| 2026-05-07 03:07 | 39.97891 | -105.75491 | 26148 ft | 410 kts | 279° |
| 2026-05-07 03:07 | 39.98058 | -105.79216 | 26530 ft | 413 kts | 279° |
| 2026-05-07 03:07 | 39.98222 | -105.82964 | 26923 ft | 415 kts | 279° |
| 2026-05-07 03:08 | 39.98392 | -105.86728 | 27302 ft | 417 kts | 280° |
| 2026-05-07 03:08 | 39.98572 | -105.90504 | 27665 ft | 419 kts | 280° |
| 2026-05-07 03:08 | 39.98758 | -105.94303 | 28018 ft | 421 kts | 280° |
| 2026-05-07 03:08 | 39.98946 | -105.98123 | 28384 ft | 423 kts | 280° |
| 2026-05-07 03:09 | 39.99135 | -106.01960 | 28759 ft | 425 kts | 280° |
| 2026-05-07 03:09 | 39.99324 | -106.05820 | 29118 ft | 428 kts | 280° |
| 2026-05-07 03:09 | 39.99511 | -106.09697 | 29463 ft | 429 kts | 280° |
| 2026-05-07 03:09 | 39.99698 | -106.13597 | 29806 ft | 432 kts | 280° |
| 2026-05-07 03:10 | 39.99882 | -106.17514 | 30148 ft | 434 kts | 280° |
| 2026-05-07 03:10 | 40.00064 | -106.21450 | 30440 ft | 437 kts | 280° |
| 2026-05-07 03:10 | 40.00245 | -106.25367 | 30730 ft | 438 kts | 280° |
| 2026-05-07 03:10 | 40.00430 | -106.29335 | 31098 ft | 438 kts | 280° |
| 2026-05-07 03:11 | 40.00609 | -106.33295 | 31520 ft | 436 kts | 280° |
| 2026-05-07 03:11 | 40.00785 | -106.37239 | 31945 ft | 435 kts | 280° |
| 2026-05-07 03:11 | 40.00961 | -106.41178 | 32368 ft | 434 kts | 280° |
| 2026-05-07 03:11 | 40.01135 | -106.45095 | 32810 ft | 432 kts | 280° |
| 2026-05-07 03:12 | 40.01309 | -106.49002 | 33276 ft | 431 kts | 280° |
| 2026-05-07 03:12 | 40.01481 | -106.52895 | 33715 ft | 429 kts | 280° |
| 2026-05-07 03:12 | 40.01649 | -106.56777 | 34116 ft | 429 kts | 280° |
| 2026-05-07 03:12 | 40.01818 | -106.60657 | 34225 ft | 427 kts | 280° |
| 2026-05-07 03:13 | 40.02147 | -106.68372 | 34234 ft | 425 kts | 280° |
| 2026-05-07 03:13 | 40.02472 | -106.76060 | 34241 ft | 424 kts | 280° |
| 2026-05-07 03:14 | 40.02791 | -106.83748 | 34239 ft | 424 kts | 280° |
| 2026-05-07 03:15 | 40.03260 | -106.95267 | 34240 ft | 424 kts | 280° |
| 2026-05-07 03:15 | 40.03560 | -107.02943 | 34241 ft | 424 kts | 280° |
| 2026-05-07 03:16 | 40.03857 | -107.10629 | 34245 ft | 424 kts | 280° |
| 2026-05-07 03:16 | 40.04157 | -107.18318 | 34247 ft | 424 kts | 280° |
| 2026-05-07 03:17 | 40.04455 | -107.25991 | 34246 ft | 424 kts | 279° |
| 2026-05-07 03:17 | 40.04742 | -107.33679 | 34248 ft | 425 kts | 279° |
| 2026-05-07 03:18 | 40.05021 | -107.41388 | 34247 ft | 425 kts | 279° |
| 2026-05-07 03:18 | 40.05290 | -107.49081 | 34237 ft | 424 kts | 279° |
| 2026-05-07 03:19 | 40.05555 | -107.56761 | 34232 ft | 424 kts | 279° |
| 2026-05-07 03:19 | 40.05830 | -107.64448 | 34231 ft | 424 kts | 279° |
| 2026-05-07 03:20 | 40.06095 | -107.72084 | 34178 ft | 424 kts | 279° |
| 2026-05-07 03:20 | 40.06220 | -107.75904 | 33936 ft | 418 kts | 279° |
| 2026-05-07 03:20 | 40.06343 | -107.79734 | 33683 ft | 416 kts | 279° |
| 2026-05-07 03:20 | 40.06460 | -107.83452 | 33444 ft | 415 kts | 279° |
| 2026-05-07 03:21 | 40.06577 | -107.87221 | 33204 ft | 416 kts | 279° |
| 2026-05-07 03:21 | 40.06731 | -107.90986 | 32963 ft | 414 kts | 283° |
| 2026-05-07 03:21 | 40.07263 | -107.94633 | 32729 ft | 407 kts | 292° |
| 2026-05-07 03:21 | 40.08112 | -107.98157 | 32496 ft | 406 kts | 293° |
| 2026-05-07 03:22 | 40.08971 | -108.01665 | 32281 ft | 407 kts | 293° |
| 2026-05-07 03:22 | 40.10678 | -108.08718 | 32221 ft | 408 kts | 293° |
| 2026-05-07 03:23 | 40.12375 | -108.15796 | 32207 ft | 408 kts | 293° |
| 2026-05-07 03:23 | 40.14073 | -108.22877 | 32194 ft | 408 kts | 293° |
| 2026-05-07 03:24 | 40.15768 | -108.29951 | 32171 ft | 408 kts | 293° |
| 2026-05-07 03:24 | 40.17451 | -108.37031 | 32164 ft | 407 kts | 292° |
| 2026-05-07 03:25 | 40.19137 | -108.44101 | 32157 ft | 407 kts | 292° |
| 2026-05-07 03:25 | 40.20815 | -108.51177 | 32158 ft | 407 kts | 292° |
| 2026-05-07 03:26 | 40.22486 | -108.58259 | 32163 ft | 407 kts | 292° |
| 2026-05-07 03:26 | 40.24152 | -108.65348 | 32164 ft | 407 kts | 292° |
| 2026-05-07 03:27 | 40.25817 | -108.72432 | 32165 ft | 407 kts | 292° |
| 2026-05-07 03:27 | 40.27474 | -108.79526 | 32164 ft | 407 kts | 292° |
| 2026-05-07 03:28 | 40.29127 | -108.86607 | 32161 ft | 406 kts | 292° |
| 2026-05-07 03:28 | 40.30775 | -108.93685 | 32163 ft | 406 kts | 292° |
| 2026-05-07 03:29 | 40.32418 | -109.00767 | 32162 ft | 406 kts | 292° |
| 2026-05-07 03:29 | 40.34053 | -109.07850 | 32163 ft | 406 kts | 292° |
| 2026-05-07 03:30 | 40.35671 | -109.14884 | 32166 ft | 405 kts | 292° |
| 2026-05-07 03:30 | 40.37300 | -109.21975 | 32181 ft | 406 kts | 292° |
| 2026-05-07 03:31 | 40.38928 | -109.29066 | 32192 ft | 406 kts | 292° |
| 2026-05-07 03:31 | 40.40544 | -109.36153 | 32206 ft | 405 kts | 292° |
| 2026-05-07 03:32 | 40.42155 | -109.43240 | 32215 ft | 405 kts | 291° |
| 2026-05-07 03:32 | 40.43761 | -109.50325 | 32216 ft | 405 kts | 291° |
| 2026-05-07 03:33 | 40.45367 | -109.57409 | 32209 ft | 405 kts | 291° |
| 2026-05-07 03:33 | 40.46968 | -109.64485 | 32108 ft | 402 kts | 291° |
| 2026-05-07 03:33 | 40.47748 | -109.67969 | 31845 ft | 394 kts | 291° |
| 2026-05-07 03:34 | 40.48513 | -109.71396 | 31589 ft | 389 kts | 291° |
| 2026-05-07 03:34 | 40.49275 | -109.74801 | 31334 ft | 387 kts | 292° |
| 2026-05-07 03:34 | 40.50033 | -109.78186 | 31084 ft | 386 kts | 292° |
| 2026-05-07 03:34 | 40.50788 | -109.81561 | 30835 ft | 384 kts | 291° |
| 2026-05-07 03:35 | 40.51538 | -109.84918 | 30582 ft | 383 kts | 291° |
| 2026-05-07 03:35 | 40.52288 | -109.88278 | 30336 ft | 382 kts | 291° |
| 2026-05-07 03:35 | 40.53033 | -109.91619 | 30081 ft | 380 kts | 291° |
| 2026-05-07 03:35 | 40.53764 | -109.94903 | 29802 ft | 379 kts | 291° |
| 2026-05-07 03:36 | 40.54502 | -109.98223 | 29514 ft | 377 kts | 291° |
| 2026-05-07 03:36 | 40.55233 | -110.01531 | 29241 ft | 376 kts | 291° |
| 2026-05-07 03:36 | 40.55958 | -110.04822 | 28968 ft | 374 kts | 291° |
| 2026-05-07 03:36 | 40.56680 | -110.08103 | 28692 ft | 373 kts | 291° |
| 2026-05-07 03:37 | 40.57399 | -110.11376 | 28419 ft | 372 kts | 291° |
| 2026-05-07 03:37 | 40.58113 | -110.14637 | 28162 ft | 371 kts | 291° |
| 2026-05-07 03:37 | 40.58827 | -110.17890 | 27894 ft | 369 kts | 291° |
| 2026-05-07 03:37 | 40.59540 | -110.21130 | 27644 ft | 368 kts | 291° |
| 2026-05-07 03:38 | 40.60251 | -110.24358 | 27383 ft | 367 kts | 291° |
| 2026-05-07 03:38 | 40.60721 | -110.26498 | 27212 ft | 366 kts | 291° |
| 2026-05-07 03:38 | 40.61424 | -110.29717 | 26957 ft | 365 kts | 291° |
| 2026-05-07 03:38 | 40.62121 | -110.32915 | 26710 ft | 363 kts | 291° |
| 2026-05-07 03:39 | 40.62819 | -110.36114 | 26458 ft | 362 kts | 291° |
| 2026-05-07 03:39 | 40.63512 | -110.39292 | 26219 ft | 361 kts | 291° |
| 2026-05-07 03:39 | 40.64200 | -110.42462 | 25967 ft | 360 kts | 291° |
| 2026-05-07 03:39 | 40.64890 | -110.45631 | 25732 ft | 359 kts | 291° |
| 2026-05-07 03:40 | 40.65573 | -110.48779 | 25491 ft | 358 kts | 291° |
| 2026-05-07 03:40 | 40.66254 | -110.51928 | 25245 ft | 356 kts | 291° |
| 2026-05-07 03:40 | 40.66930 | -110.55063 | 25014 ft | 355 kts | 291° |
| 2026-05-07 03:40 | 40.67601 | -110.58188 | 24774 ft | 354 kts | 291° |
| 2026-05-07 03:41 | 40.68269 | -110.61304 | 24538 ft | 353 kts | 290° |
| 2026-05-07 03:41 | 40.68938 | -110.64413 | 24303 ft | 351 kts | 290° |
| 2026-05-07 03:41 | 40.69602 | -110.67506 | 24093 ft | 350 kts | 291° |
| 2026-05-07 03:41 | 40.70262 | -110.70588 | 23860 ft | 349 kts | 290° |
| 2026-05-07 03:42 | 40.70919 | -110.73662 | 23598 ft | 347 kts | 290° |
| 2026-05-07 03:42 | 40.71559 | -110.76661 | 23312 ft | 342 kts | 290° |
| 2026-05-07 03:42 | 40.72200 | -110.79664 | 22919 ft | 338 kts | 290° |
| 2026-05-07 03:42 | 40.72833 | -110.82636 | 22516 ft | 336 kts | 291° |
| 2026-05-07 03:43 | 40.73462 | -110.85590 | 22116 ft | 333 kts | 290° |
| 2026-05-07 03:43 | 40.74086 | -110.88516 | 21715 ft | 331 kts | 290° |
| 2026-05-07 03:43 | 40.74708 | -110.91432 | 21321 ft | 329 kts | 290° |
| 2026-05-07 03:43 | 40.75326 | -110.94333 | 20913 ft | 328 kts | 290° |
| 2026-05-07 03:44 | 40.75938 | -110.97218 | 20530 ft | 326 kts | 290° |
| 2026-05-07 03:44 | 40.76547 | -111.00093 | 20126 ft | 325 kts | 290° |
| 2026-05-07 03:44 | 40.77154 | -111.02968 | 19727 ft | 324 kts | 290° |
| 2026-05-07 03:44 | 40.77757 | -111.05823 | 19333 ft | 323 kts | 290° |
| 2026-05-07 03:45 | 40.78359 | -111.08678 | 18940 ft | 323 kts | 290° |
| 2026-05-07 03:45 | 40.78962 | -111.11541 | 18520 ft | 324 kts | 290° |
| 2026-05-07 03:45 | 40.79567 | -111.14422 | 17953 ft | 327 kts | 290° |
| 2026-05-07 03:45 | 40.80170 | -111.17303 | 17534 ft | 324 kts | 289° |
| 2026-05-07 03:46 | 40.80766 | -111.20162 | 17136 ft | 321 kts | 289° |
| 2026-05-07 03:46 | 40.81357 | -111.22993 | 16742 ft | 319 kts | 289° |
| 2026-05-07 03:46 | 40.81945 | -111.25806 | 16344 ft | 317 kts | 289° |
| 2026-05-07 03:46 | 40.82532 | -111.28613 | 15954 ft | 317 kts | 289° |
| 2026-05-07 03:47 | 40.83118 | -111.31409 | 15570 ft | 316 kts | 289° |
| 2026-05-07 03:47 | 40.83703 | -111.34208 | 15170 ft | 316 kts | 289° |
| 2026-05-07 03:47 | 40.84282 | -111.37000 | 14786 ft | 315 kts | 289° |
| 2026-05-07 03:47 | 40.84866 | -111.39782 | 14385 ft | 314 kts | 291° |
| 2026-05-07 03:48 | 40.85840 | -111.42266 | 13997 ft | 306 kts | 308° |
| 2026-05-07 03:48 | 40.87131 | -111.44521 | 13602 ft | 303 kts | 310° |
| 2026-05-07 03:48 | 40.88415 | -111.46690 | 13211 ft | 302 kts | 310° |
| 2026-05-07 03:48 | 40.89707 | -111.48867 | 12821 ft | 301 kts | 310° |
| 2026-05-07 03:49 | 40.91000 | -111.51034 | 12441 ft | 299 kts | 310° |
| 2026-05-07 03:49 | 40.92288 | -111.53182 | 12055 ft | 298 kts | 310° |
| 2026-05-07 03:49 | 40.93576 | -111.55322 | 11678 ft | 296 kts | 310° |
| 2026-05-07 03:49 | 40.94861 | -111.57447 | 11306 ft | 294 kts | 310° |
| 2026-05-07 03:50 | 40.96135 | -111.59540 | 11034 ft | 289 kts | 310° |
| 2026-05-07 03:50 | 40.97393 | -111.61603 | 11001 ft | 288 kts | 310° |
| 2026-05-07 03:50 | 40.98654 | -111.63666 | 10999 ft | 288 kts | 310° |
| 2026-05-07 03:50 | 40.99913 | -111.65722 | 11003 ft | 288 kts | 310° |
| 2026-05-07 03:51 | 41.01173 | -111.67771 | 11005 ft | 287 kts | 310° |
| 2026-05-07 03:51 | 41.02437 | -111.69823 | 11005 ft | 287 kts | 310° |
| 2026-05-07 03:51 | 41.03700 | -111.71872 | 11007 ft | 287 kts | 310° |
| 2026-05-07 03:51 | 41.04960 | -111.73918 | 11008 ft | 287 kts | 310° |
| 2026-05-07 03:52 | 41.06224 | -111.75966 | 11010 ft | 287 kts | 310° |
| 2026-05-07 03:52 | 41.07489 | -111.78015 | 11012 ft | 287 kts | 310° |
| 2026-05-07 03:52 | 41.08733 | -111.80033 | 11008 ft | 276 kts | 310° |
| 2026-05-07 03:52 | 41.09933 | -111.81970 | 11013 ft | 273 kts | 310° |
| 2026-05-07 03:53 | 41.11152 | -111.83924 | 11016 ft | 277 kts | 310° |
| 2026-05-07 03:53 | 41.12385 | -111.85893 | 11023 ft | 278 kts | 310° |
| 2026-05-07 03:53 | 41.13616 | -111.87859 | 11020 ft | 277 kts | 310° |
| 2026-05-07 03:53 | 41.14824 | -111.89857 | 11023 ft | 279 kts | 304° |
| 2026-05-07 03:54 | 41.15489 | -111.92253 | 11018 ft | 282 kts | 278° |
| 2026-05-07 03:54 | 41.15340 | -111.94826 | 11020 ft | 287 kts | 262° |
| 2026-05-07 03:54 | 41.14930 | -111.97418 | 11020 ft | 287 kts | 261° |
| 2026-05-07 03:54 | 41.14215 | -111.99904 | 11020 ft | 294 kts | 239° |
| 2026-05-07 03:55 | 41.12756 | -112.01840 | 10785 ft | 305 kts | 216° |
| 2026-05-07 03:55 | 41.10774 | -112.02942 | 10328 ft | 314 kts | 195° |
| 2026-05-07 03:55 | 41.08611 | -112.03087 | 9909 ft | 310 kts | 173° |
| 2026-05-07 03:55 | 41.06540 | -112.02510 | 9520 ft | 299 kts | 168° |
| 2026-05-07 03:56 | 41.04550 | -112.01905 | 9134 ft | 288 kts | 168° |
| 2026-05-07 03:56 | 41.02624 | -112.01312 | 8753 ft | 279 kts | 168° |
| 2026-05-07 03:56 | 41.00759 | -112.00735 | 8368 ft | 271 kts | 168° |
| 2026-05-07 03:56 | 40.98951 | -112.00176 | 7996 ft | 264 kts | 168° |
| 2026-05-07 03:57 | 40.97183 | -111.99650 | 7622 ft | 256 kts | 171° |
| 2026-05-07 03:57 | 40.95439 | -111.99376 | 7249 ft | 249 kts | 176° |
| 2026-05-07 03:57 | 40.93739 | -111.99198 | 6865 ft | 243 kts | 175° |
| 2026-05-07 03:57 | 40.92070 | -111.99012 | 6463 ft | 238 kts | 174° |
| 2026-05-07 03:58 | 40.90445 | -111.98824 | 6161 ft | 229 kts | 174° |
| 2026-05-07 03:58 | 40.88892 | -111.98642 | 5896 ft | 219 kts | 174° |
| 2026-05-07 03:58 | 40.87421 | -111.98471 | 5660 ft | 203 kts | 175° |
| 2026-05-07 03:58 | 40.86076 | -111.98314 | 5367 ft | 186 kts | 175° |
| 2026-05-07 03:59 | 40.84829 | -111.98169 | 5125 ft | 175 kts | 174° |
| 2026-05-07 03:59 | 40.83665 | -111.98036 | 4927 ft | 162 kts | 174° |
| 2026-05-07 03:59 | 40.82592 | -111.97913 | 4642 ft | 150 kts | 174° |
| 2026-05-07 03:59 | 40.81567 | -111.97795 | 4432 ft | 146 kts | 174° |
| 2026-05-07 04:00 | 40.80569 | -111.97679 | 4256 ft | 143 kts | 173° |
| 2026-05-07 04:00 | 40.79708 | -111.97567 | 4232 ft | 99 kts | 176° |
| 2026-05-07 04:00 | 40.79199 | -111.97511 | 4235 ft | 51 kts | 176° |
| 2026-05-07 04:00 | 40.78955 | -111.97487 | 4233 ft | 31 kts | 176° |
| 2026-05-07 04:01 | 40.78800 | -111.97470 | 4236 ft | 20 kts | 175° |
| 2026-05-07 04:01 | 40.78678 | -111.97467 | 4235 ft | 17 kts | 186° |
| 2026-05-07 04:01 | 40.78564 | -111.97507 | 4234 ft | 17 kts | 204° |
| 2026-05-07 04:01 | 40.78502 | -111.97544 | 4233 ft | 9 kts | 204° |
| 2026-05-07 04:02 | 40.78454 | -111.97602 | 4234 ft | 10 kts | 264° |
| 2026-05-07 04:02 | 40.78506 | -111.97651 | 4234 ft | 10 kts | 354° |
| 2026-05-07 04:02 | 40.78576 | -111.97661 | 4235 ft | 11 kts | 354° |
| 2026-05-07 04:02 | 40.78653 | -111.97669 | 4235 ft | 12 kts | 357° |
| 2026-05-07 04:03 | 40.78738 | -111.97677 | 4235 ft | 13 kts | 354° |
| 2026-05-07 04:03 | 40.78819 | -111.97719 | 4235 ft | 14 kts | 302° |
| 2026-05-07 04:03 | 40.78818 | -111.97843 | 4235 ft | 14 kts | 266° |
| 2026-05-07 04:03 | 40.78808 | -111.97980 | 4235 ft | 16 kts | 264° |
| 2026-05-07 04:04 | 40.78798 | -111.98132 | 4235 ft | 17 kts | 267° |
| 2026-05-07 04:04 | 40.78787 | -111.98296 | 4235 ft | 19 kts | 264° |
| 2026-05-07 04:04 | 40.78775 | -111.98471 | 4235 ft | 19 kts | 265° |
| 2026-05-07 04:04 | 40.78766 | -111.98619 | 4235 ft | 16 kts | 264° |
| 2026-05-07 04:05 | 40.78756 | -111.98754 | 4235 ft | 13 kts | 265° |
| 2026-05-07 04:05 | 40.78748 | -111.98869 | 4235 ft | 9 kts | 266° |
| 2026-05-07 04:05 | 40.78789 | -111.98895 | 4235 ft | 4 kts | 3° |
| 2026-05-07 04:05 | 40.78816 | -111.98892 | 4235 ft | 0 kts | 5° |